TimeCET,TemperatureF,Dew PointF,Humidity,Sea Level PressureIn,VisibilityMPH,Wind Direction,Wind SpeedMPH,Gust SpeedMPH,PrecipitationIn,Events,Conditions,WindDirDegrees,DateUTC
12:00 AM,23.0,21.2,93,30.48,5.0,South,4.6,-,N/A,,Unknown,190,2012-12-28 23:00:00
12:30 AM,23.0,21.2,93,30.45,5.0,SSW,3.5,-,N/A,,Unknown,210,2012-12-28 23:30:00
1:00 AM,22,20,91,30.54,5,SW,4.5,,,,Mist,220,2012-12-29 00:00:00
1:00 AM,21.2,21.2,100,30.45,5.0,SW,4.6,-,N/A,,Unknown,220,2012-12-29 00:00:00
1:30 AM,21.2,19.4,93,30.45,5.0,South,4.6,-,N/A,,Unknown,190,2012-12-29 00:30:00
2:00 AM,21.2,19.4,93,30.45,5.0,South,5.8,-,N/A,,Unknown,190,2012-12-29 01:00:00
2:30 AM,21.2,19.4,93,30.42,5.0,South,6.9,-,N/A,,Unknown,180,2012-12-29 01:30:00
3:00 AM,21.2,17.6,86,30.45,5.6,West,6.9,-,N/A,,Unknown,260,2012-12-29 02:00:00
3:30 AM,21.2,19.4,93,30.42,5.6,SSW,4.6,-,N/A,,Unknown,200,2012-12-29 02:30:00
4:00 AM,19.4,17.6,93,30.42,5.0,SSW,5.8,-,N/A,,Unknown,210,2012-12-29 03:00:00
4:30 AM,19.4,17.6,93,30.42,5.0,SW,4.6,-,N/A,,Unknown,230,2012-12-29 03:30:00
5:00 AM,19.4,17.6,93,30.42,5.0,SSW,4.6,-,N/A,,Unknown,210,2012-12-29 04:00:00
5:30 AM,19.4,15.8,86,30.42,5.6,SW,5.8,-,N/A,,Unknown,220,2012-12-29 04:30:00
6:00 AM,19.4,15.8,86,30.39,5.6,SW,3.5,-,N/A,,Unknown,230,2012-12-29 05:00:00
6:30 AM,19.4,17.6,93,30.39,-9999.0,South,2.3,-,N/A,,Clear,190,2012-12-29 05:30:00
7:00 AM,21,17,78,30.48,12,SSW,6.7,,,,Clear,210,2012-12-29 06:00:00
7:00 AM,21.2,17.6,86,30.39,-9999.0,SSW,4.6,-,N/A,,Clear,210,2012-12-29 06:00:00
7:30 AM,21.2,17.6,86,30.39,-9999.0,South,5.8,-,N/A,,Clear,190,2012-12-29 06:30:00
8:00 AM,23.0,19.4,86,30.39,-9999.0,SSW,8.1,-,N/A,,Clear,210,2012-12-29 07:00:00
8:30 AM,24.8,21.2,86,30.39,-9999.0,SW,8.1,-,N/A,,Clear,230,2012-12-29 07:30:00
9:00 AM,24.8,21.2,86,30.39,-9999.0,SW,12.7,-,N/A,,Clear,220,2012-12-29 08:00:00
9:30 AM,26.6,21.2,80,30.39,-9999.0,SW,13.8,-,N/A,,Clear,220,2012-12-29 08:30:00
10:00 AM,28.4,23.0,80,30.39,-9999.0,SW,13.8,-,N/A,,Clear,230,2012-12-29 09:00:00
10:30 AM,30.2,23.0,75,30.39,-9999.0,SW,10.4,-,N/A,,Clear,220,2012-12-29 09:30:00
11:00 AM,30.2,23.0,75,30.36,-9999.0,WSW,15.0,-,N/A,,Clear,240,2012-12-29 10:00:00
11:30 AM,32.0,23.0,69,30.36,-9999.0,SW,11.5,-,N/A,,Clear,230,2012-12-29 10:30:00
12:00 PM,33.8,21.2,60,30.36,-9999.0,WSW,13.8,-,N/A,,Clear,250,2012-12-29 11:00:00
12:30 PM,32.0,23.0,69,30.33,-9999.0,WSW,18.4,-,N/A,,Clear,240,2012-12-29 11:30:00
1:00 PM,33,23,54,30.38,25,WSW,15.7,,,,Scattered Clouds,240,2012-12-29 12:00:00
1:00 PM,33.8,23.0,65,30.33,-9999.0,WSW,15.0,-,N/A,,Clear,240,2012-12-29 12:00:00
1:30 PM,33.8,23.0,65,30.33,-9999.0,WSW,16.1,-,N/A,,Clear,240,2012-12-29 12:30:00
2:00 PM,32.0,23.0,69,30.30,-9999.0,WSW,16.1,-,N/A,,Clear,240,2012-12-29 13:00:00
2:30 PM,32.0,23.0,69,30.30,-9999.0,SW,16.1,-,N/A,,Clear,230,2012-12-29 13:30:00
3:00 PM,32.0,23.0,69,30.30,-9999.0,WSW,15.0,-,N/A,,Clear,240,2012-12-29 14:00:00
3:30 PM,32.0,23.0,69,30.27,-9999.0,SW,15.0,-,N/A,,Clear,230,2012-12-29 14:30:00
4:00 PM,30.2,24.8,80,30.27,-9999.0,SW,13.8,-,N/A,,Clear,230,2012-12-29 15:00:00
4:30 PM,30.2,23.0,75,30.27,-9999.0,WSW,11.5,-,N/A,,Clear,240,2012-12-29 15:30:00
5:00 PM,30.2,23.0,75,30.27,-9999.0,WSW,11.5,-,N/A,,Clear,250,2012-12-29 16:00:00
5:30 PM,30.2,23.0,75,30.24,-9999.0,West,10.4,-,N/A,,Clear,260,2012-12-29 16:30:00
6:00 PM,32.0,23.0,69,30.24,-9999.0,WSW,11.5,-,N/A,,Clear,250,2012-12-29 17:00:00
6:30 PM,33.8,21.2,60,30.21,-9999.0,WSW,12.7,-,N/A,,Clear,240,2012-12-29 17:30:00
7:00 PM,33,19,44,30.28,19,WSW,13.4,,,,Clear,240,2012-12-29 18:00:00
7:00 PM,32.0,19.4,60,30.21,-9999.0,WSW,13.8,-,N/A,,Clear,240,2012-12-29 18:00:00
7:30 PM,32.0,19.4,60,30.21,-9999.0,WSW,13.8,-,N/A,,Clear,240,2012-12-29 18:30:00
8:00 PM,32.0,21.2,64,30.21,-9999.0,WSW,15.0,-,N/A,,Clear,250,2012-12-29 19:00:00
8:30 PM,32.0,21.2,64,30.21,-9999.0,WSW,13.8,-,N/A,,Clear,250,2012-12-29 19:30:00
9:00 PM,30.2,19.4,64,30.21,-9999.0,WSW,15.0,-,N/A,,Clear,250,2012-12-29 20:00:00
9:30 PM,30.2,19.4,64,30.21,-9999.0,WSW,15.0,-,N/A,,Clear,250,2012-12-29 20:30:00
10:00 PM,30.2,19.4,64,30.21,-9999.0,WSW,13.8,-,N/A,,Clear,250,2012-12-29 21:00:00
10:30 PM,30.2,17.6,60,30.18,-9999.0,WSW,15.0,-,N/A,,Clear,240,2012-12-29 21:30:00
11:00 PM,30.2,17.6,60,30.18,-9999.0,WSW,15.0,-,N/A,,Clear,240,2012-12-29 22:00:00
11:30 PM,32.0,15.8,51,30.18,-9999.0,WSW,16.1,-,N/A,,Clear,240,2012-12-29 22:30:00